Time;durP1;ratioP1;P1;durP2;ratioP2;P2;SDS_P1;SDS_P2;PMS_P1;PMS_P2;Temp;Humidity;BMP_temperature;BMP_pressure;BME280_temperature;BME280_humidity;BME280_pressure;Samples;Min_cycle;Max_cycle;Signal;HPM_P1;HPM_P2
2022/10/12 00:01:30;;;;;;;15.38;13.85;;;2.40;99.90;;;;;;5015767;28;20037;-72
2022/10/12 00:03:57;;;;;;;16.65;13.32;;;2.40;99.90;;;;;;5036616;28;20565;-73
2022/10/12 00:06:24;;;;;;;16.33;13.23;;;2.50;99.90;;;;;;5008925;28;20759;-73
2022/10/12 00:08:53;;;;;;;15.73;14.10;;;2.50;99.90;;;;;;5045438;28;20098;-72
2022/10/12 00:11:25;;;;;;;16.40;14.65;;;2.40;99.90;;;;;;5009193;28;20037;-73
2022/10/12 00:13:53;;;;;;;15.88;13.63;;;2.30;99.90;;;;;;5003645;28;20305;-73
2022/10/12 00:16:22;;;;;;;21.40;14.07;;;2.30;99.90;;;;;;5014904;28;20110;-73
2022/10/12 00:18:51;;;;;;;15.60;13.50;;;2.20;99.90;;;;;;5008783;28;20578;-72
2022/10/12 00:21:19;;;;;;;14.60;13.23;;;2.40;99.90;;;;;;4997413;28;20103;-72
2022/10/12 00:23:47;;;;;;;22.02;13.85;;;2.40;99.90;;;;;;5004330;28;20445;-72
2022/10/12 00:26:17;;;;;;;18.20;13.10;;;2.40;99.90;;;;;;5021512;28;20041;-72
2022/10/12 00:28:44;;;;;;;16.63;12.88;;;2.40;99.90;;;;;;5020877;28;20044;-72
2022/10/12 00:31:17;;;;;;;15.45;13.57;;;2.30;99.90;;;;;;5021903;28;20040;-72
2022/10/12 00:33:45;;;;;;;16.90;13.00;;;2.40;99.90;;;;;;5013196;28;20107;-72
2022/10/12 00:36:14;;;;;;;17.90;13.30;;;2.40;99.90;;;;;;5002577;28;20037;-72
2022/10/12 00:38:41;;;;;;;15.35;11.88;;;2.60;99.90;;;;;;5002798;28;20045;-72
2022/10/12 00:41:08;;;;;;;19.98;12.40;;;2.70;99.90;;;;;;5043458;28;20036;-73
2022/10/12 00:43:38;;;;;;;16.73;12.57;;;2.70;99.90;;;;;;5030291;28;20806;-73
2022/10/12 00:46:15;;;;;;;22.60;12.98;;;2.60;99.90;;;;;;5057251;28;20449;-73
2022/10/12 00:48:45;;;;;;;13.85;11.45;;;2.80;99.90;;;;;;5039795;28;20052;-72
2022/10/12 00:51:13;;;;;;;18.13;12.23;;;2.80;99.90;;;;;;5056344;28;20040;-72
2022/10/12 00:57:50;;;;;;;19.35;12.50;;;2.50;99.90;;;;;;5028643;28;20119;-72
2022/10/12 01:00:18;;;;;;;26.85;12.18;;;2.60;99.90;;;;;;5041697;28;20232;-72
2022/10/12 01:02:47;;;;;;;21.23;12.75;;;2.80;99.90;;;;;;5043879;28;20070;-72
2022/10/12 01:05:16;;;;;;;12.23;10.90;;;2.80;99.90;;;;;;5067352;22;20564;-76
2022/10/12 01:07:43;;;;;;;15.18;12.18;;;2.70;99.90;;;;;;5005505;28;20063;-75
2022/10/12 01:10:09;;;;;;;14.13;12.75;;;2.50;99.90;;;;;;5041304;28;20045;-76
2022/10/12 01:12:39;;;;;;;21.30;12.40;;;2.60;99.90;;;;;;5026248;28;20807;-75
2022/10/12 01:15:06;;;;;;;15.38;12.25;;;2.50;99.90;;;;;;5007664;28;20084;-75
2022/10/12 01:17:59;;;;;;;14.48;12.18;;;2.40;99.90;;;;;;5020616;28;20045;-75
2022/10/12 01:20:44;;;;;;;18.38;12.45;;;2.50;99.90;;;;;;5006339;28;20406;-74
2022/10/12 01:23:17;;;;;;;;;;;2.50;99.90;;;;;;5017652;28;20042;-74
2022/10/12 01:26:21;;;;;;;17.35;12.40;;;2.40;99.90;;;;;;5022424;28;20401;-75
2022/10/12 01:28:57;;;;;;;14.20;12.60;;;2.50;99.90;;;;;;5006233;28;20078;-74
2022/10/12 01:31:30;;;;;;;13.73;11.90;;;2.40;99.90;;;;;;5035738;28;20044;-74
2022/10/12 01:34:16;;;;;;;25.65;11.98;;;2.40;99.90;;;;;;5022844;28;20037;-74
2022/10/12 01:37:14;;;;;;;17.80;12.43;;;2.50;99.90;;;;;;5005827;28;20227;-74
2022/10/12 01:39:48;;;;;;;20.85;12.10;;;2.50;99.90;;;;;;5033975;28;20045;-75
2022/10/12 01:42:39;;;;;;;18.88;11.55;;;2.60;99.90;;;;;;5020073;28;20037;-75
2022/10/12 01:45:11;;;;;;;17.02;10.88;;;2.50;99.90;;;;;;5036519;28;20083;-73
2022/10/12 01:47:40;;;;;;;17.17;11.50;;;2.50;99.90;;;;;;5000594;28;20052;-74
2022/10/12 01:50:09;;;;;;;18.63;11.82;;;2.30;99.90;;;;;;5020709;28;20120;-75
2022/10/12 01:53:07;;;;;;;14.70;10.70;;;2.30;99.90;;;;;;5025205;28;20175;-75
2022/10/12 01:55:56;;;;;;;12.48;11.15;;;2.30;99.90;;;;;;5020574;28;20049;-74
2022/10/12 01:58:50;;;;;;;16.27;11.68;;;2.30;99.90;;;;;;5004965;28;20060;-75
2022/10/12 02:01:42;;;;;;;12.18;10.90;;;2.30;99.90;;;;;;5018037;28;20045;-76
2022/10/12 02:04:19;;;;;;;19.95;12.07;;;2.20;99.90;;;;;;5000407;28;20049;-75
2022/10/12 02:06:52;;;;;;;16.75;11.77;;;2.20;99.90;;;;;;5015251;28;20502;-74
2022/10/12 02:09:31;;;;;;;15.55;12.15;;;2.10;99.90;;;;;;5039432;28;20292;-74
2022/10/12 02:12:04;;;;;;;29.98;12.88;;;2.30;99.90;;;;;;4999153;28;20528;-74
2022/10/12 02:14:54;;;;;;;17.20;12.23;;;2.50;99.90;;;;;;5031287;28;21417;-74
2022/10/12 02:17:21;;;;;;;16.27;12.07;;;2.50;99.90;;;;;;5031272;28;20051;-74
2022/10/12 02:20:02;;;;;;;14.63;11.07;;;2.50;99.90;;;;;;5023915;28;20135;-74
2022/10/12 02:22:34;;;;;;;14.88;11.43;;;2.40;99.90;;;;;;5035598;28;20045;-74
2022/10/12 02:25:07;;;;;;;17.83;12.02;;;2.30;99.90;;;;;;5037649;28;20056;-74
2022/10/12 02:27:37;;;;;;;18.40;13.00;;;2.20;99.90;;;;;;5022781;28;20041;-74
2022/10/12 02:30:06;;;;;;;20.30;11.88;;;2.30;99.90;;;;;;5027959;28;20219;-74
2022/10/12 02:33:01;;;;;;;21.30;12.52;;;2.30;99.90;;;;;;5024412;28;20449;-74
2022/10/12 02:35:42;;;;;;;23.08;13.13;;;2.30;99.90;;;;;;5021546;28;20496;-74
2022/10/12 02:38:15;;;;;;;15.32;12.77;;;2.30;99.90;;;;;;5028970;28;20037;-74
2022/10/12 02:40:51;;;;;;;24.27;13.48;;;2.40;99.90;;;;;;4994869;28;20049;-74
2022/10/12 02:43:32;;;;;;;24.15;12.80;;;2.50;99.90;;;;;;5017873;28;20506;-75
2022/10/12 02:46:05;;;;;;;18.20;12.30;;;2.50;99.90;;;;;;5003740;28;20041;-75
2022/10/12 02:48:34;;;;;;;17.52;12.88;;;2.50;99.90;;;;;;5011071;28;20069;-74
2022/10/12 02:51:02;;;;;;;17.27;12.48;;;2.50;99.90;;;;;;5015840;28;20048;-75
2022/10/12 02:53:29;;;;;;;15.18;12.20;;;2.40;99.90;;;;;;5034085;28;20430;-74
2022/10/12 02:56:03;;;;;;;16.70;11.77;;;2.30;99.90;;;;;;5011381;28;21386;-75
2022/10/12 02:58:30;;;;;;;20.25;12.18;;;2.30;99.90;;;;;;5027662;28;20617;-74
2022/10/12 03:00:57;;;;;;;17.35;12.52;;;2.30;99.90;;;;;;5027980;28;20045;-74
2022/10/12 03:03:24;;;;;;;20.80;12.65;;;2.30;99.90;;;;;;5036509;28;20048;-74
2022/10/12 03:05:50;;;;;;;17.42;13.13;;;2.20;99.90;;;;;;5008845;28;20044;-74
2022/10/12 03:08:17;;;;;;;21.77;12.40;;;2.30;99.90;;;;;;5046775;28;20055;-75
2022/10/12 03:10:44;;;;;;;20.70;13.20;;;2.50;99.90;;;;;;5024314;28;20079;-75
2022/10/12 03:13:11;;;;;;;20.50;12.20;;;2.70;99.90;;;;;;5043489;28;20098;-75
2022/10/12 03:15:37;;;;;;;19.00;12.15;;;2.70;99.90;;;;;;5036297;28;20718;-74
2022/10/12 03:18:04;;;;;;;21.10;12.18;;;2.70;99.90;;;;;;5059122;28;20032;-74
2022/10/12 03:20:31;;;;;;;17.73;11.02;;;2.80;99.90;;;;;;5057013;28;20055;-74
2022/10/12 03:22:58;;;;;;;18.35;11.43;;;2.90;99.90;;;;;;5016865;28;20037;-73
2022/10/12 03:25:24;;;;;;;28.75;12.15;;;3.00;99.90;;;;;;5058945;28;20481;-76
2022/10/12 03:27:51;;;;;;;22.30;12.07;;;3.00;99.90;;;;;;5048308;28;20475;-74
2022/10/12 03:30:18;;;;;;;20.95;11.38;;;2.90;99.90;;;;;;5031170;28;20658;-75
2022/10/12 03:32:44;;;;;;;19.73;11.65;;;2.80;99.90;;;;;;5061171;28;20041;-74
2022/10/12 03:35:11;;;;;;;17.88;12.27;;;2.70;99.90;;;;;;5043818;28;20388;-75
2022/10/12 03:37:38;;;;;;;25.00;13.45;;;2.70;99.90;;;;;;5050398;28;20106;-74
2022/10/12 03:40:06;;;;;;;19.40;11.05;;;2.70;99.90;;;;;;5045476;28;20052;-75
2022/10/12 03:42:33;;;;;;;18.05;10.90;;;2.80;99.90;;;;;;5040503;28;20040;-74
2022/10/12 03:44:59;;;;;;;18.88;10.88;;;2.80;99.90;;;;;;5049467;28;20067;-74
2022/10/12 03:47:26;;;;;;;22.65;11.35;;;2.90;99.90;;;;;;5048209;28;20372;-74
2022/10/12 03:49:52;;;;;;;29.85;11.95;;;3.10;99.90;;;;;;5045341;28;20053;-75
2022/10/12 03:52:19;;;;;;;26.10;11.15;;;3.00;99.90;;;;;;5042323;28;20533;-74
2022/10/12 03:54:46;;;;;;;22.17;11.13;;;2.90;99.90;;;;;;5041253;28;20670;-74
2022/10/12 03:57:12;;;;;;;20.83;11.07;;;2.90;99.90;;;;;;5048950;28;20037;-75
2022/10/12 03:59:39;;;;;;;23.48;11.90;;;2.90;99.90;;;;;;5024138;28;20032;-76
2022/10/12 04:02:06;;;;;;;21.33;11.15;;;2.80;99.90;;;;;;5046105;28;20064;-75
2022/10/12 04:04:32;;;;;;;27.95;12.10;;;2.80;99.90;;;;;;5042402;28;20313;-76
2022/10/12 04:06:59;;;;;;;23.48;12.60;;;2.90;99.90;;;;;;5059739;28;20047;-75
2022/10/12 04:09:29;;;;;;;22.20;12.25;;;2.90;99.90;;;;;;5059305;28;20043;-75
2022/10/12 04:11:55;;;;;;;31.25;14.30;;;3.00;99.90;;;;;;5045623;28;20040;-74
2022/10/12 04:14:22;;;;;;;27.52;14.00;;;3.20;99.90;;;;;;5041070;28;20151;-75
2022/10/12 04:16:49;;;;;;;35.85;15.05;;;3.40;99.90;;;;;;5042673;28;20037;-74
2022/10/12 04:19:15;;;;;;;30.48;13.23;;;3.30;99.90;;;;;;5027071;28;20285;-75
2022/10/12 04:21:42;;;;;;;29.58;13.90;;;3.30;99.90;;;;;;5058738;28;20550;-75
2022/10/12 04:24:09;;;;;;;32.45;13.77;;;3.30;99.90;;;;;;5066467;28;20175;-75
2022/10/12 04:26:36;;;;;;;26.35;13.93;;;3.30;99.90;;;;;;5050737;28;21238;-76
2022/10/12 04:29:03;;;;;;;28.92;14.32;;;3.40;99.90;;;;;;5050997;28;20051;-75
2022/10/12 04:31:30;;;;;;;34.50;15.55;;;3.40;99.90;;;;;;5040320;28;20045;-76
2022/10/12 04:33:57;;;;;;;31.75;15.05;;;3.30;99.90;;;;;;5060077;28;20143;-75
2022/10/12 04:36:24;;;;;;;23.92;14.65;;;3.50;99.90;;;;;;5043430;28;20044;-75
2022/10/12 04:38:52;;;;;;;29.00;14.50;;;3.40;99.90;;;;;;5064450;28;20052;-75
2022/10/12 04:41:27;;;;;;;;;;;3.50;99.90;;;;;;5056723;28;20092;-74
2022/10/12 04:43:53;;;;;;;22.63;14.60;;;3.60;99.90;;;;;;5035442;28;20326;-76
2022/10/12 04:46:20;;;;;;;28.40;15.25;;;3.50;99.90;;;;;;5038495;28;20143;-75
2022/10/12 04:48:48;;;;;;;31.20;15.45;;;3.50;99.90;;;;;;5062407;28;20512;-75
2022/10/12 04:51:14;;;;;;;29.63;14.07;;;3.50;99.90;;;;;;5038459;28;20270;-75
2022/10/12 04:53:41;;;;;;;24.75;14.73;;;3.40;99.90;;;;;;5060368;28;20036;-75
2022/10/12 04:56:08;;;;;;;26.98;14.57;;;3.20;99.90;;;;;;5058303;28;20201;-76
2022/10/12 04:58:35;;;;;;;31.00;14.48;;;3.20;99.90;;;;;;5036801;28;20045;-75
2022/10/12 05:01:02;;;;;;;23.90;14.38;;;3.20;99.90;;;;;;5056993;28;20079;-75
2022/10/12 05:03:29;;;;;;;35.63;16.77;;;3.30;99.90;;;;;;5044009;28;20075;-76
2022/10/12 05:05:55;;;;;;;21.98;14.23;;;3.30;99.90;;;;;;5040390;28;20140;-75
2022/10/12 05:08:22;;;;;;;34.83;15.23;;;3.40;99.90;;;;;;5055126;28;20041;-76
2022/10/12 05:10:49;;;;;;;35.22;16.70;;;3.40;99.90;;;;;;5051572;28;20045;-75
2022/10/12 05:13:15;;;;;;;31.73;16.08;;;3.50;99.90;;;;;;5045415;28;20062;-76
2022/10/12 05:15:43;;;;;;;32.15;16.35;;;3.50;99.90;;;;;;5035840;28;20120;-73
2022/10/12 05:18:10;;;;;;;37.35;15.10;;;3.50;99.90;;;;;;5058027;28;20041;-76
2022/10/12 05:20:37;;;;;;;29.02;15.95;;;3.40;99.90;;;;;;5037127;28;20484;-75
2022/10/12 05:23:04;;;;;;;32.97;16.70;;;3.40;99.90;;;;;;5052558;28;20082;-75
2022/10/12 05:25:30;;;;;;;26.70;15.48;;;3.50;99.90;;;;;;5041149;28;20040;-76
2022/10/12 05:27:57;;;;;;;33.30;15.68;;;3.40;99.90;;;;;;5044310;28;20079;-75
2022/10/12 05:30:24;;;;;;;44.45;16.88;;;3.30;99.90;;;;;;5039268;28;20760;-76
2022/10/12 05:32:50;;;;;;;36.28;16.50;;;3.40;99.90;;;;;;5044310;28;20048;-75
2022/10/12 05:35:17;;;;;;;33.60;16.15;;;3.30;99.90;;;;;;5040200;28;20044;-76
2022/10/12 05:37:44;;;;;;;38.60;16.88;;;3.50;99.90;;;;;;5037877;28;20052;-76
2022/10/12 05:40:11;;;;;;;44.35;17.17;;;3.50;99.90;;;;;;5056722;28;20272;-75
2022/10/12 05:42:38;;;;;;;30.25;15.75;;;3.50;99.90;;;;;;5054630;28;20040;-76
2022/10/12 05:45:06;;;;;;;27.63;16.25;;;3.50;99.90;;;;;;5024889;28;20508;-76
2022/10/12 05:47:32;;;;;;;36.22;16.90;;;3.70;99.90;;;;;;5045219;28;20036;-75
2022/10/12 05:49:59;;;;;;;29.75;14.88;;;3.80;99.90;;;;;;5042795;28;20049;-76
2022/10/12 05:52:26;;;;;;;28.30;14.25;;;3.80;99.90;;;;;;5054971;28;20095;-76
2022/10/12 05:54:52;;;;;;;33.47;15.00;;;3.60;99.90;;;;;;5041338;28;20039;-74
2022/10/12 05:57:19;;;;;;;32.35;15.18;;;3.50;99.90;;;;;;5040469;28;20045;-76
2022/10/12 05:59:46;;;;;;;39.08;15.45;;;3.40;99.90;;;;;;5040630;28;20049;-75
2022/10/12 06:02:17;;;;;;;36.05;15.35;;;3.30;99.90;;;;;;5040458;28;20070;-74
2022/10/12 06:04:44;;;;;;;35.10;15.93;;;3.30;99.90;;;;;;5059889;28;20067;-75
2022/10/12 06:07:11;;;;;;;31.20;15.55;;;3.40;99.90;;;;;;5038632;28;20493;-75
2022/10/12 06:09:38;;;;;;;33.47;15.82;;;3.20;99.90;;;;;;5035837;28;20056;-76
2022/10/12 06:12:06;;;;;;;32.15;16.15;;;3.20;99.90;;;;;;5042665;28;20422;-75
2022/10/12 06:14:33;;;;;;;34.72;16.15;;;3.20;99.90;;;;;;5054032;28;20059;-75
2022/10/12 06:16:59;;;;;;;28.92;16.42;;;3.20;99.90;;;;;;5041158;28;20081;-75
2022/10/12 06:19:26;;;;;;;27.02;15.18;;;3.10;99.90;;;;;;5053932;28;20083;-75
2022/10/12 06:21:53;;;;;;;30.27;16.58;;;3.20;99.90;;;;;;5056389;28;20066;-76
2022/10/12 06:24:19;;;;;;;25.08;16.45;;;3.10;99.90;;;;;;5057729;28;20049;-74
2022/10/12 06:26:47;;;;;;;30.10;18.20;;;3.30;99.90;;;;;;5025923;28;20355;-75
2022/10/12 06:29:13;;;;;;;41.60;17.70;;;3.40;99.90;;;;;;5024275;28;20072;-75
2022/10/12 06:31:40;;;;;;;32.25;17.30;;;3.50;99.90;;;;;;5052279;28;20628;-75
2022/10/12 06:34:07;;;;;;;33.97;18.17;;;3.50;99.90;;;;;;5039563;28;20053;-74
2022/10/12 06:36:33;;;;;;;37.20;18.73;;;3.60;99.90;;;;;;5054836;28;20036;-75
2022/10/12 06:39:00;;;;;;;31.00;17.08;;;3.80;99.90;;;;;;5040560;28;20080;-74
2022/10/12 06:41:27;;;;;;;38.53;18.23;;;4.00;99.90;;;;;;5054860;28;20037;-74
2022/10/12 06:43:54;;;;;;;36.25;17.25;;;4.00;99.90;;;;;;5049708;28;20180;-75
2022/10/12 06:46:21;;;;;;;42.17;18.23;;;4.10;99.90;;;;;;5055165;28;20032;-76
2022/10/12 06:48:47;;;;;;;35.80;19.73;;;4.00;99.90;;;;;;5039020;28;20259;-75
2022/10/12 06:51:14;;;;;;;42.67;19.77;;;4.10;99.90;;;;;;5033498;28;20052;-75
2022/10/12 06:53:41;;;;;;;48.65;20.67;;;4.20;99.90;;;;;;5035559;28;20059;-75
2022/10/12 06:56:09;;;;;;;42.00;19.88;;;4.30;99.90;;;;;;5040626;28;20080;-75
2022/10/12 06:58:36;;;;;;;37.15;17.10;;;4.50;99.90;;;;;;5056591;28;20079;-73
2022/10/12 07:01:04;;;;;;;36.35;19.02;;;4.80;99.90;;;;;;5045867;28;20305;-76
2022/10/12 07:03:31;;;;;;;38.22;17.63;;;5.00;99.90;;;;;;5040319;28;20055;-76
2022/10/12 07:06:06;;;;;;;39.50;18.45;;;5.10;99.90;;;;;;5063661;22;21346;-71
2022/10/12 07:08:33;;;;;;;35.25;18.00;;;5.30;99.90;;;;;;5039808;28;20051;-72
2022/10/12 07:11:05;;;;;;;36.00;18.67;;;5.40;99.90;;;;;;5040241;28;20056;-71
2022/10/12 07:13:32;;;;;;;34.50;16.95;;;5.50;99.90;;;;;;5031914;28;20078;-70
2022/10/12 07:15:58;;;;;;;30.00;17.40;;;5.60;99.90;;;;;;5023385;28;20032;-70
2022/10/12 07:18:25;;;;;;;36.50;17.75;;;5.70;99.90;;;;;;5027069;28;20032;-71
2022/10/12 07:20:57;;;;;;;40.40;20.55;;;5.80;99.90;;;;;;5035335;28;20037;-70
2022/10/12 07:23:27;;;;;;;33.47;19.67;;;5.80;99.90;;;;;;5046602;28;20037;-71
2022/10/12 07:25:54;;;;;;;35.45;18.95;;;5.90;99.90;;;;;;5056040;28;20054;-71
2022/10/12 07:28:21;;;;;;;24.67;16.67;;;6.00;99.90;;;;;;5023605;28;20059;-69
2022/10/12 07:30:48;;;;;;;28.33;16.85;;;6.20;99.90;;;;;;5033610;28;20698;-70
2022/10/12 07:33:15;;;;;;;29.00;17.85;;;6.40;99.90;;;;;;5033489;28;20126;-70
2022/10/12 07:35:41;;;;;;;31.67;16.20;;;6.50;99.90;;;;;;5038752;28;20482;-69
2022/10/12 07:38:29;;;;;;;30.30;17.48;;;6.60;99.90;;;;;;5045946;28;20461;-68
2022/10/12 07:41:00;;;;;;;23.63;16.58;;;6.70;99.90;;;;;;5030660;28;20425;-71
2022/10/12 07:43:30;;;;;;;30.52;16.00;;;6.80;99.90;;;;;;5034975;28;20043;-69
2022/10/12 07:45:57;;;;;;;21.77;15.30;;;6.90;99.90;;;;;;5046847;28;20040;-68
2022/10/12 07:48:24;;;;;;;23.67;15.38;;;7.00;99.90;;;;;;5054121;28;20174;-68
2022/10/12 07:50:50;;;;;;;32.03;14.70;;;7.10;99.90;;;;;;5047931;28;20043;-69
2022/10/12 07:53:17;;;;;;;24.40;15.45;;;7.30;99.90;;;;;;5052651;28;20040;-71
2022/10/12 07:55:43;;;;;;;23.48;13.93;;;7.40;99.90;;;;;;5053060;28;20049;-71
2022/10/12 07:58:11;;;;;;;25.65;14.98;;;7.60;99.90;;;;;;5033898;28;20048;-71
2022/10/12 08:00:38;;;;;;;20.60;15.63;;;7.70;99.90;;;;;;5024641;28;20044;-68
2022/10/12 08:03:05;;;;;;;20.77;15.27;;;7.80;99.90;;;;;;5057148;28;20046;-71
2022/10/12 08:05:32;;;;;;;21.75;16.33;;;8.10;99.90;;;;;;5046335;28;20044;-71
2022/10/12 08:07:59;;;;;;;25.17;18.33;;;8.50;99.90;;;;;;5047381;28;20259;-69
2022/10/12 08:10:26;;;;;;;20.75;18.80;;;8.70;99.90;;;;;;5046925;28;20039;-69
2022/10/12 08:12:52;;;;;;;28.48;22.40;;;8.90;99.90;;;;;;5031753;28;20044;-69
2022/10/12 08:15:19;;;;;;;25.10;22.30;;;8.90;99.90;;;;;;5053305;28;20044;-70
2022/10/12 08:17:46;;;;;;;23.33;21.02;;;9.10;99.90;;;;;;5041705;28;20049;-69
2022/10/12 08:20:12;;;;;;;25.67;21.63;;;9.30;99.90;;;;;;5036601;28;20036;-71
2022/10/12 08:22:39;;;;;;;23.13;20.98;;;9.60;99.90;;;;;;5054271;28;20135;-71
2022/10/12 08:25:06;;;;;;;23.52;21.38;;;9.90;99.90;;;;;;5054613;28;20210;-71
2022/10/12 08:27:33;;;;;;;23.25;20.95;;;10.00;99.90;;;;;;5046547;28;20051;-71
2022/10/12 08:29:59;;;;;;;22.40;20.45;;;10.40;99.90;;;;;;5029407;28;20040;-71
2022/10/12 08:32:26;;;;;;;23.75;21.58;;;10.60;99.90;;;;;;5045201;28;20033;-68
2022/10/12 08:34:53;;;;;;;24.02;21.88;;;10.90;99.90;;;;;;5014465;28;20624;-68
2022/10/12 08:37:19;;;;;;;24.48;22.40;;;10.90;99.90;;;;;;5044983;28;20037;-68
2022/10/12 08:39:46;;;;;;;23.85;21.83;;;11.10;99.90;;;;;;5015504;28;20043;-69
2022/10/12 08:42:31;;;;;;;23.23;21.20;;;11.20;99.90;;;;;;5052954;28;20117;-69
2022/10/12 08:45:35;;;;;;;25.67;23.27;;;11.50;99.90;;;;;;5042749;28;20397;-71
2022/10/12 08:48:15;;;;;;;26.85;22.58;;;11.60;99.90;;;;;;5053708;28;20550;-68
2022/10/12 08:50:49;;;;;;;23.75;21.52;;;11.80;99.90;;;;;;5043000;28;20857;-71
2022/10/12 08:53:26;;;;;;;27.00;23.00;;;11.90;99.90;;;;;;5052748;28;20069;-67
2022/10/12 08:55:53;;;;;;;25.33;23.23;;;11.70;99.90;;;;;;5051766;28;20032;-68
2022/10/12 08:58:36;;;;;;;24.70;22.60;;;11.80;99.90;;;;;;5028076;28;20045;-70
2022/10/12 09:01:49;;;;;;;25.63;23.58;;;11.90;99.90;;;;;;5037966;28;20552;-68
2022/10/12 09:04:47;;;;;;;26.13;23.55;;;12.20;99.90;;;;;;4992151;28;20053;-68
2022/10/12 09:07:25;;;;;;;26.17;23.95;;;12.30;99.90;;;;;;4970337;28;20714;-68
2022/10/12 09:10:25;;;;;;;27.75;24.25;;;12.50;99.90;;;;;;5038477;28;20048;-70
2022/10/12 09:13:04;;;;;;;24.90;22.95;;;12.40;99.90;;;;;;5034315;28;20045;-70
2022/10/12 09:15:38;;;;;;;25.83;23.95;;;12.70;99.90;;;;;;5033569;28;20049;-70
2022/10/12 09:18:16;;;;;;;25.80;23.60;;;12.80;99.90;;;;;;5030449;28;20522;-70
2022/10/12 09:20:51;;;;;;;26.13;23.88;;;13.10;99.90;;;;;;5030436;28;20049;-70
2022/10/12 09:23:26;;;;;;;26.17;24.10;;;13.20;99.90;;;;;;5039608;28;20047;-68
2022/10/12 09:26:00;;;;;;;25.98;23.92;;;13.30;99.90;;;;;;5050286;28;20052;-70
2022/10/12 09:28:34;;;;;;;26.35;23.70;;;13.30;99.90;;;;;;5032348;28;20086;-70
2022/10/12 09:31:17;;;;;;;27.38;25.30;;;13.10;99.90;;;;;;5022312;28;20041;-71
2022/10/12 09:33:50;;;;;;;26.30;24.30;;;13.20;99.90;;;;;;5040165;28;20049;-72
2022/10/12 09:36:22;;;;;;;25.70;23.70;;;13.50;99.90;;;;;;5026401;28;20033;-71
2022/10/12 09:38:50;;;;;;;27.10;24.67;;;13.40;99.90;;;;;;5010505;28;20573;-71
2022/10/12 09:41:23;;;;;;;26.13;24.23;;;13.60;99.90;;;;;;5040334;28;20049;-71
2022/10/12 09:43:58;;;;;;;26.52;24.50;;;13.50;99.90;;;;;;5034972;28;20041;-71
2022/10/12 09:46:36;;;;;;;28.10;25.73;;;13.30;99.90;;;;;;5043790;28;20037;-71
2022/10/12 09:49:02;;;;;;;28.55;26.25;;;13.20;99.90;;;;;;5052849;28;20040;-71
2022/10/12 09:51:30;;;;;;;26.98;24.90;;;12.90;99.90;;;;;;5051398;28;20643;-72
2022/10/12 09:54:02;;;;;;;26.50;24.50;;;13.10;99.90;;;;;;5040427;28;20029;-71
2022/10/12 09:56:43;;;;;;;25.98;23.98;;;13.20;99.90;;;;;;5051696;28;20113;-71
2022/10/12 09:59:27;;;;;;;25.33;23.63;;;13.20;99.90;;;;;;5025863;28;20443;-72
2022/10/12 10:02:21;;;;;;;25.20;23.35;;;13.40;99.90;;;;;;5048120;28;20131;-71
2022/10/12 10:04:49;;;;;;;25.58;23.65;;;13.40;99.90;;;;;;5042555;28;20048;-71
2022/10/12 10:07:34;;;;;;;25.85;23.88;;;13.30;99.90;;;;;;5044429;28;20033;-72
2022/10/12 10:10:04;;;;;;;25.23;23.02;;;13.20;99.90;;;;;;5047679;28;20048;-71
2022/10/12 10:12:31;;;;;;;25.70;23.70;;;13.20;99.90;;;;;;5021381;28;20037;-70
2022/10/12 10:14:58;;;;;;;26.48;24.33;;;13.10;99.90;;;;;;5044462;28;20135;-72
2022/10/12 10:17:32;;;;;;;26.83;24.33;;;13.00;99.90;;;;;;5049244;28;20116;-71
2022/10/12 10:20:04;;;;;;;25.00;23.25;;;13.00;99.90;;;;;;5029995;28;20049;-71
2022/10/12 10:22:31;;;;;;;25.92;23.77;;;13.40;99.90;;;;;;5023511;28;20156;-71
2022/10/12 10:24:59;;;;;;;25.77;23.88;;;13.60;99.90;;;;;;5047880;28;20115;-71
2022/10/12 10:27:37;;;;;;;25.50;23.55;;;13.60;99.90;;;;;;5050504;28;20037;-71
2022/10/12 10:30:13;;;;;;;23.95;22.33;;;13.90;99.90;;;;;;5037735;28;20054;-72
2022/10/12 10:33:28;;;;;;;25.25;23.05;;;14.00;99.90;;;;;;5044369;28;20040;-71
2022/10/12 10:36:05;;;;;;;25.67;23.50;;;14.10;99.90;;;;;;5029769;28;20045;-71
2022/10/12 10:38:51;;;;;;;25.27;23.25;;;14.10;99.90;;;;;;5045657;28;20045;-71
2022/10/12 10:41:18;;;;;;;24.95;22.95;;;14.10;99.90;;;;;;5023652;28;20033;-71
2022/10/12 10:43:47;;;;;;;26.15;23.90;;;14.10;99.90;;;;;;5016823;28;20136;-71
2022/10/12 10:46:21;;;;;;;26.08;24.02;;;14.30;99.90;;;;;;5051572;28;20505;-72
2022/10/12 10:48:50;;;;;;;25.73;23.58;;;14.60;99.90;;;;;;5035714;28;20049;-71
2022/10/12 10:51:17;;;;;;;25.83;23.98;;;14.70;99.90;;;;;;5047831;28;20689;-72
2022/10/12 10:53:50;;;;;;;26.02;23.65;;;14.80;99.90;;;;;;5031816;28;20048;-71
2022/10/12 10:56:23;;;;;;;26.30;24.17;;;14.70;99.90;;;;;;5048656;28;20036;-71
2022/10/12 10:58:58;;;;;;;25.73;24.10;;;14.70;99.90;;;;;;5051705;28;20033;-71
2022/10/12 11:01:34;;;;;;;27.27;24.60;;;14.80;99.90;;;;;;5030187;28;20041;-71
2022/10/12 11:04:14;;;;;;;25.88;23.70;;;14.80;99.90;;;;;;5049731;28;20044;-71
2022/10/12 11:06:42;;;;;;;26.42;24.23;;;14.40;99.90;;;;;;5047621;28;20045;-71
2022/10/12 11:09:34;;;;;;;25.75;24.00;;;14.50;99.90;;;;;;5038424;28;20036;-71
2022/10/12 11:12:07;;;;;;;26.77;24.63;;;14.60;99.90;;;;;;5038246;28;20613;-72
2022/10/12 11:14:40;;;;;;;28.05;25.65;;;14.90;99.90;;;;;;5041027;28;20128;-71
2022/10/12 11:17:17;;;;;;;26.08;24.40;;;14.90;99.90;;;;;;5041224;28;20033;-72
2022/10/12 11:19:50;;;;;;;28.10;25.90;;;14.90;99.90;;;;;;5049147;28;20449;-72
2022/10/12 11:22:27;;;;;;;26.63;24.48;;;14.70;99.90;;;;;;5047917;28;20574;-71
2022/10/12 11:25:06;;;;;;;26.35;24.45;;;14.60;99.90;;;;;;5036696;28;20045;-72
2022/10/12 11:27:38;;;;;;;26.95;24.55;;;14.90;99.90;;;;;;5044627;28;20056;-72
2022/10/12 11:30:16;;;;;;;26.17;24.35;;;15.10;99.90;;;;;;5037630;28;20519;-72
2022/10/12 11:32:54;;;;;;;26.70;24.38;;;15.10;99.90;;;;;;5044552;28;20797;-72
2022/10/12 11:35:27;;;;;;;26.88;25.13;;;14.90;99.90;;;;;;5032190;28;20053;-72
2022/10/12 11:37:59;;;;;;;27.48;25.38;;;15.20;99.90;;;;;;5034120;28;20529;-72
2022/10/12 11:40:32;;;;;;;27.75;25.42;;;15.10;99.90;;;;;;5051677;28;20491;-72
2022/10/12 11:43:23;;;;;;;31.00;25.15;;;14.80;99.90;;;;;;5038117;28;20029;-72
2022/10/12 11:45:53;;;;;;;27.60;25.50;;;14.80;99.90;;;;;;5047315;28;20140;-71
2022/10/12 11:48:29;;;;;;;27.95;25.40;;;14.90;99.90;;;;;;5023220;28;20051;-72
2022/10/12 11:50:57;;;;;;;26.15;23.88;;;14.80;99.90;;;;;;5021200;28;20043;-72
2022/10/12 11:53:39;;;;;;;28.40;25.85;;;15.00;99.90;;;;;;5046223;28;20049;-71
2022/10/12 11:56:09;;;;;;;27.15;24.83;;;15.10;99.90;;;;;;5047793;28;20311;-71
2022/10/12 11:58:40;;;;;;;26.60;24.50;;;14.90;99.90;;;;;;5034750;28;20049;-71
2022/10/12 12:01:44;;;;;;;26.15;24.15;;;14.90;99.90;;;;;;5052203;28;20039;-71
2022/10/12 12:04:21;;;;;;;26.70;24.58;;;14.80;99.90;;;;;;5057757;28;20528;-71
2022/10/12 12:07:43;;;;;;;31.35;28.73;;;14.80;99.90;;;;;;5030244;28;20124;-72
2022/10/12 12:10:40;;;;;;;27.08;25.05;;;14.80;99.90;;;;;;5032176;28;20041;-72
2022/10/12 12:13:11;;;;;;;30.83;28.13;;;15.10;99.90;;;;;;5017350;28;20453;-71
2022/10/12 12:15:39;;;;;;;28.33;25.83;;;15.30;99.90;;;;;;5010197;28;20061;-71
2022/10/12 12:18:16;;;;;;;25.15;23.23;;;15.30;99.90;;;;;;5036333;28;20032;-71
2022/10/12 12:20:42;;;;;;;27.38;24.73;;;15.00;99.90;;;;;;5052648;28;20476;-71
2022/10/12 12:23:30;;;;;;;27.95;25.65;;;14.90;99.90;;;;;;5050400;28;20085;-71
2022/10/12 12:26:10;;;;;;;26.88;24.80;;;15.00;99.90;;;;;;5041741;28;20047;-71
2022/10/12 12:28:51;;;;;;;26.70;24.50;;;15.00;99.90;;;;;;5053037;28;20044;-71
2022/10/12 12:31:27;;;;;;;25.17;23.48;;;15.20;99.90;;;;;;5061374;28;20295;-71
2022/10/12 12:34:12;;;;;;;26.77;24.67;;;15.20;99.90;;;;;;5059282;28;20206;-71
2022/10/12 12:36:43;;;;;;;;;;;15.00;99.90;;;;;;5045483;28;20122;-70
2022/10/12 12:39:23;;;;;;;27.83;25.35;;;14.90;99.90;;;;;;5047900;28;19979;-72
2022/10/12 12:41:56;;;;;;;26.60;24.30;;;14.80;99.90;;;;;;5050557;28;20131;-70
2022/10/12 12:44:36;;;;;;;26.98;24.45;;;14.80;99.90;;;;;;5047700;28;20071;-69
2022/10/12 12:47:03;;;;;;;26.75;24.70;;;14.80;99.90;;;;;;5042954;28;20036;-70
2022/10/12 12:49:53;;;;;;;26.92;24.77;;;15.00;99.90;;;;;;5055479;28;20120;-69
2022/10/12 12:52:23;;;;;;;26.10;24.25;;;15.20;99.90;;;;;;5045371;28;20052;-71
2022/10/12 12:55:15;;;;;;;26.00;23.83;;;15.50;99.90;;;;;;5047645;28;20052;-69
2022/10/12 12:57:53;;;;;;;26.83;24.98;;;15.60;99.90;;;;;;5031260;28;20581;-69
2022/10/12 13:00:25;;;;;;;27.08;24.63;;;15.80;99.90;;;;;;5054325;28;20040;-69
2022/10/12 13:03:36;;;;;;;27.27;25.23;;;16.00;99.90;;;;;;5051686;28;21332;-69